Terminal Aerodrome Forecast
Issued by NWS

Home | Current Version | Previous Version | Text Only | Print | Product List | Glossary On
Versions: 1 2 3 4 5 6 7 8 9 10 11 12 13
000
FTUS45 KABQ 211100
TAFSAF
TAF
KSAF 211140Z 2112/2212 14008KT P6SM SCT020
     FM211700 14012G20KT P6SM BKN060
     FM212100 15014G24KT P6SM VCSH BKN060 PROB30 2122/2204
      VRB18G30KT -TSRA BKN040CB BKN090
     FM220400 13012G21KT P6SM BKN045=

USA.gov is the U.S. government's official web portal to all federal, state and local government web resources and services.